Time;durP1;ratioP1;P1;durP2;ratioP2;P2;SDS_P1;SDS_P2;PMS_P1;PMS_P2;Temp;Humidity;BMP_temperature;BMP_pressure;BME280_temperature;BME280_humidity;BME280_pressure;Samples;Min_cycle;Max_cycle;Signal;HPM_P1;HPM_P2
2023/12/06 00:00:21;;;;;;;29.70;17.70;;;;;;;-0.87;79.05;100000.41;106966;1261;72749;-39
2023/12/06 00:02:49;;;;;;;29.70;18.10;;;;;;;-0.89;79.02;100000.16;106996;1260;59619;-39
2023/12/06 00:05:17;;;;;;;30.70;19.30;;;;;;;-0.90;78.97;99998.03;106993;1260;59973;-39
2023/12/06 00:07:45;;;;;;;28.00;18.00;;;;;;;-0.91;78.85;100003.03;106969;1260;72055;-39
2023/12/06 00:10:13;;;;;;;26.10;16.60;;;;;;;-0.91;78.92;100003.67;106962;1260;66274;-39
2023/12/06 00:12:41;;;;;;;26.50;17.40;;;;;;;-0.83;78.62;100005.37;106948;1264;72664;-41
2023/12/06 00:15:09;;;;;;;29.00;17.90;;;;;;;-0.80;78.79;100002.86;106983;1260;59612;-41
2023/12/06 00:17:36;;;;;;;26.30;17.40;;;;;;;-0.81;78.68;100004.19;107175;1257;59227;-40
2023/12/06 00:20:05;;;;;;;29.80;18.20;;;;;;;-0.83;78.68;100002.49;107224;1257;73092;-40
2023/12/06 00:22:33;;;;;;;28.60;17.90;;;;;;;-0.82;78.82;100006.11;107236;1257;67638;-40
2023/12/06 00:25:00;;;;;;;29.00;18.10;;;;;;;-0.82;78.43;100007.22;107166;1257;70071;-40
2023/12/06 00:27:28;;;;;;;28.10;18.30;;;;;;;-0.74;78.51;100007.00;107195;1257;59641;-41
2023/12/06 00:29:56;;;;;;;30.10;19.20;;;;;;;-0.66;78.09;100007.68;107195;1257;59727;-40
2023/12/06 00:32:23;;;;;;;29.80;19.60;;;;;;;-0.68;78.00;100007.42;107214;1257;73437;-40
2023/12/06 00:34:51;;;;;;;31.20;20.00;;;;;;;-0.71;78.06;100005.24;107174;1257;66415;-40
2023/12/06 00:37:18;;;;;;;35.80;21.90;;;;;;;-0.77;78.02;100008.39;107182;1257;72693;-40
2023/12/06 00:39:46;;;;;;;29.60;19.60;;;;;;;-0.81;78.03;100002.95;107160;1260;60922;-40
2023/12/06 00:42:14;;;;;;;30.90;20.40;;;;;;;-0.78;77.88;99995.57;107169;1258;59996;-40
2023/12/06 00:44:41;;;;;;;31.10;20.30;;;;;;;-0.78;77.91;99990.02;107194;1257;72310;-40
2023/12/06 00:47:09;;;;;;;32.50;19.30;;;;;;;-0.84;77.98;99989.02;107197;1257;67872;-41
2023/12/06 00:49:36;;;;;;;36.40;21.30;;;;;;;-0.89;78.04;99988.19;107198;1257;72673;-40
2023/12/06 00:52:04;;;;;;;37.00;21.50;;;;;;;-0.95;78.43;99991.48;107174;1257;59743;-40
2023/12/06 00:54:32;;;;;;;31.30;19.70;;;;;;;-0.95;78.41;99991.18;107133;1257;60014;-41
2023/12/06 00:57:00;;;;;;;31.60;19.60;;;;;;;-0.87;78.31;99990.36;107243;1257;73031;-40
2023/12/06 00:59:27;;;;;;;35.00;21.00;;;;;;;-0.87;78.27;99987.38;107241;1257;66270;-40
2023/12/06 01:01:55;;;;;;;31.50;19.50;;;;;;;-0.90;78.27;99983.98;107263;1257;72223;-40
2023/12/06 01:04:22;;;;;;;32.30;20.70;;;;;;;-0.95;78.41;99979.52;107214;1260;59660;-40
2023/12/06 01:06:51;;;;;;;31.10;19.60;;;;;;;-0.98;78.22;99978.41;107165;1257;59621;-40
2023/12/06 01:09:19;;;;;;;28.90;19.70;;;;;;;-0.99;78.11;99973.34;107212;1257;72110;-40
2023/12/06 01:11:46;;;;;;;30.80;19.90;;;;;;;-0.97;78.19;99967.38;107184;1257;67272;-40
2023/12/06 01:14:14;;;;;;;33.30;21.20;;;;;;;-0.98;78.16;99971.80;107100;1260;72763;-40
2023/12/06 01:16:41;;;;;;;32.90;21.50;;;;;;;-1.03;78.54;99971.12;107058;1259;59532;-40
2023/12/06 01:19:09;;;;;;;32.10;20.40;;;;;;;-1.07;78.49;99969.73;106379;1259;1002999;-40
2023/12/06 01:21:36;;;;;;;37.80;21.90;;;;;;;-1.06;78.44;99964.05;104833;1259;1003513;-40
2023/12/06 01:24:04;;;;;;;36.20;20.60;;;;;;;-1.03;78.50;99970.80;107110;1262;67945;-40
2023/12/06 01:26:32;;;;;;;35.60;22.90;;;;;;;-1.07;78.60;99970.75;107168;1261;70416;-41
2023/12/06 01:29:03;;;;;;;34.20;22.20;;;;;;;-1.12;78.67;99968.46;107158;1257;59630;-40
2023/12/06 01:31:31;;;;;;;33.80;21.90;;;;;;;-1.15;78.89;99973.20;107173;1257;60052;-41
2023/12/06 01:33:58;;;;;;;36.50;21.50;;;;;;;-1.11;78.90;99967.55;107183;1257;71860;-40
2023/12/06 01:36:26;;;;;;;36.80;21.60;;;;;;;-1.04;78.71;99968.61;107167;1260;67647;-41
2023/12/06 01:38:53;;;;;;;37.90;23.60;;;;;;;-1.03;78.70;99973.99;107162;1258;71414;-40
2023/12/06 01:41:21;;;;;;;35.20;23.00;;;;;;;-1.06;78.77;99974.52;107175;1257;59733;-41
2023/12/06 01:43:48;;;;;;;37.70;22.10;;;;;;;-1.10;78.81;99965.32;107174;1262;59747;-41
2023/12/06 01:46:16;;;;;;;37.10;22.80;;;;;;;-1.12;78.69;99958.14;107153;1257;73051;-40
2023/12/06 01:48:43;;;;;;;35.50;22.10;;;;;;;-1.11;78.72;99957.42;107133;1261;67583;-40
2023/12/06 01:51:12;;;;;;;34.10;22.60;;;;;;;-1.15;78.73;99958.41;107167;1257;72936;-40
2023/12/06 01:53:41;;;;;;;36.30;23.70;;;;;;;-1.22;78.97;99957.92;107067;1258;59617;-40
2023/12/06 01:56:08;;;;;;;34.50;21.70;;;;;;;-1.28;78.97;99957.09;107151;1257;60162;-40
2023/12/06 01:58:37;;;;;;;33.10;21.10;;;;;;;-1.27;79.16;99954.73;107028;1257;71828;-40
2023/12/06 02:01:05;;;;;;;32.90;19.30;;;;;;;-1.23;79.06;99957.45;107258;1257;66752;-40
2023/12/06 02:03:33;;;;;;;35.50;22.00;;;;;;;-1.25;79.08;99955.75;107165;1258;72680;-40
2023/12/06 02:06:02;;;;;;;34.30;22.40;;;;;;;-1.28;79.35;99958.63;107178;1257;59471;-41
2023/12/06 02:08:31;;;;;;;33.90;22.10;;;;;;;-1.31;79.35;99956.02;107196;1257;60139;-41
2023/12/06 02:10:59;;;;;;;28.00;17.80;;;;;;;-1.31;79.30;99955.87;107149;1258;73103;-40
2023/12/06 02:13:27;;;;;;;33.80;21.60;;;;;;;-1.26;79.17;99959.11;107184;1257;66320;-40
2023/12/06 02:15:55;;;;;;;40.10;23.40;;;;;;;-1.31;79.15;99956.84;107057;1262;72700;-40
2023/12/06 02:18:23;;;;;;;33.00;22.70;;;;;;;-1.34;79.29;99955.66;106994;1257;59601;-40
2023/12/06 02:20:52;;;;;;;35.20;21.50;;;;;;;-1.35;79.39;99954.70;107175;1257;59502;-40
2023/12/06 02:23:19;;;;;;;31.50;19.70;;;;;;;-1.31;79.28;99953.90;107189;1257;73079;-40
2023/12/06 02:25:47;;;;;;;32.20;22.20;;;;;;;-1.26;79.08;99961.30;107016;1257;66028;-40
2023/12/06 02:28:14;;;;;;;35.00;21.90;;;;;;;-1.28;79.11;99965.27;107104;1258;72728;-40
2023/12/06 02:30:42;;;;;;;35.70;22.50;;;;;;;-1.27;79.37;99968.90;107163;1257;59331;-40
2023/12/06 02:33:09;;;;;;;37.70;21.90;;;;;;;-1.27;79.38;99965.91;107061;1258;59644;-40
2023/12/06 02:35:46;;;;;;;33.30;20.80;;;;;;;-1.22;78.99;99963.52;107130;1257;73079;-40
2023/12/06 02:38:14;;;;;;;31.60;19.80;;;;;;;-1.20;78.71;99958.40;107025;1257;66910;-40
2023/12/06 02:40:43;;;;;;;34.70;21.50;;;;;;;-1.25;78.96;99958.30;107298;1257;72680;-43
2023/12/06 02:43:13;;;;;;;33.40;21.50;;;;;;;-1.30;79.01;99960.33;107224;1257;60473;-41
2023/12/06 02:45:41;;;;;;;32.70;20.30;;;;;;;-1.32;78.96;99956.66;107192;1257;60469;-40
2023/12/06 02:48:09;;;;;;;33.70;21.60;;;;;;;-1.26;78.83;99954.80;107161;1257;73884;-40
2023/12/06 02:50:36;;;;;;;32.90;21.10;;;;;;;-1.21;78.85;99952.07;107214;1257;67601;-40
2023/12/06 02:53:04;;;;;;;33.70;20.70;;;;;;;-1.24;78.84;99944.48;107157;1257;71460;-40
2023/12/06 02:55:31;;;;;;;32.70;21.10;;;;;;;-1.29;78.99;99944.70;107146;1257;60204;-39
2023/12/06 02:57:59;;;;;;;34.90;20.60;;;;;;;-1.35;78.70;99941.19;107177;1257;60040;-40
2023/12/06 03:00:26;;;;;;;32.90;19.90;;;;;;;-1.34;78.71;99934.85;107143;1257;73888;-40
2023/12/06 03:02:54;;;;;;;32.10;19.70;;;;;;;-1.34;78.56;99935.81;107145;1257;68124;-39
2023/12/06 03:05:22;;;;;;;33.30;20.70;;;;;;;-1.37;78.85;99937.09;107188;1257;72664;-40
2023/12/06 03:07:49;;;;;;;32.80;21.10;;;;;;;-1.41;78.83;99936.29;107111;1262;60722;-40
2023/12/06 03:10:16;;;;;;;31.40;20.00;;;;;;;-1.45;79.02;99936.92;106443;1257;1003336;-40
2023/12/06 03:12:44;;;;;;;32.80;21.00;;;;;;;-1.43;78.95;99931.24;107170;1257;73858;-39
2023/12/06 03:15:12;;;;;;;31.40;20.60;;;;;;;-1.41;78.92;99934.23;107191;1257;67541;-40
2023/12/06 03:17:39;;;;;;;33.20;21.20;;;;;;;-1.45;79.03;99932.36;107152;1257;71816;-39
2023/12/06 03:20:08;;;;;;;34.00;20.60;;;;;;;-1.49;79.09;99932.14;107116;1257;60466;-39
2023/12/06 03:22:36;;;;;;;33.70;20.80;;;;;;;-1.49;79.23;99942.67;107256;1257;60517;-39
2023/12/06 03:25:05;;;;;;;29.60;19.00;;;;;;;-1.43;79.07;99947.78;107205;1260;73846;-39
2023/12/06 03:27:33;;;;;;;37.40;20.20;;;;;;;-1.40;79.06;99942.19;107154;1257;67592;-40
2023/12/06 03:30:01;;;;;;;33.60;20.20;;;;;;;-1.40;79.19;99936.08;107158;1257;71722;-39
2023/12/06 03:32:29;;;;;;;31.60;19.90;;;;;;;-1.42;79.04;99933.59;107163;1261;60524;-39
2023/12/06 03:34:56;;;;;;;34.10;19.70;;;;;;;-1.42;78.91;99938.27;107160;1257;59997;-39
2023/12/06 03:37:24;;;;;;;30.60;19.30;;;;;;;-1.35;78.74;99944.17;107177;1257;72612;-39
2023/12/06 03:39:52;;;;;;;32.00;20.20;;;;;;;-1.33;78.58;99947.41;107134;1256;66570;-41
2023/12/06 03:42:19;;;;;;;37.20;22.00;;;;;;;-1.35;78.48;99946.23;107167;1257;72939;-40
2023/12/06 03:44:47;;;;;;;34.30;20.80;;;;;;;-1.38;78.48;99947.99;106411;1258;1002815;-40
2023/12/06 03:47:14;;;;;;;31.10;19.30;;;;;;;-1.44;78.38;99942.83;107184;1257;60399;-40
2023/12/06 03:49:42;;;;;;;29.70;18.50;;;;;;;-1.36;78.16;99948.10;107178;1257;72621;-40
2023/12/06 03:52:09;;;;;;;31.30;19.70;;;;;;;-1.38;78.26;99953.20;105668;1257;1002915;-40
2023/12/06 03:54:37;;;;;;;35.00;19.80;;;;;;;-1.41;78.43;99958.58;107115;1263;73201;-40
2023/12/06 03:57:05;;;;;;;36.00;21.10;;;;;;;-1.43;78.30;99963.79;107170;1257;60444;-40
2023/12/06 03:59:32;;;;;;;31.40;19.00;;;;;;;-1.46;78.49;99961.92;107190;1257;60598;-41
2023/12/06 04:02:00;;;;;;;30.10;19.50;;;;;;;-1.41;78.12;99961.29;107209;1257;73828;-40
2023/12/06 04:04:27;;;;;;;29.90;19.60;;;;;;;-1.42;77.86;99963.16;107158;1257;67580;-41
2023/12/06 04:06:55;;;;;;;32.70;20.00;;;;;;;-1.46;78.04;99964.38;107190;1257;73081;-40
2023/12/06 04:09:22;;;;;;;34.00;20.30;;;;;;;-1.48;78.28;99967.62;107156;1262;60469;-40
2023/12/06 04:11:51;;;;;;;31.50;18.90;;;;;;;-1.46;78.25;99970.48;107172;1257;60421;-40
2023/12/06 04:14:18;;;;;;;28.40;18.40;;;;;;;-1.40;77.76;99968.31;107148;1257;73889;-40
2023/12/06 04:16:49;;;;;;;32.90;19.00;;;;;;;-1.39;77.79;99975.96;107141;1257;65461;-40
2023/12/06 04:19:17;;;;;;;30.20;19.00;;;;;;;-1.41;77.71;99977.52;107135;1257;72695;-41
2023/12/06 04:21:44;;;;;;;31.60;19.10;;;;;;;-1.45;77.49;99976.34;107194;1262;60489;-41
2023/12/06 04:24:12;;;;;;;28.80;18.80;;;;;;;-1.49;77.32;99979.27;107181;1257;60540;-40
2023/12/06 04:26:39;;;;;;;30.40;18.10;;;;;;;-1.45;77.20;99979.52;107173;1257;73951;-40
2023/12/06 04:29:07;;;;;;;33.00;19.80;;;;;;;-1.41;77.28;99977.73;107231;1257;67566;-40
2023/12/06 04:31:35;;;;;;;31.30;19.00;;;;;;;-1.40;77.16;99980.59;107170;1261;72646;-40
2023/12/06 04:34:03;;;;;;;32.80;20.10;;;;;;;-1.41;77.06;99977.94;107214;1257;60425;-40
2023/12/06 04:36:31;;;;;;;33.00;19.50;;;;;;;-1.44;76.99;99978.99;107198;1256;60445;-40
2023/12/06 04:38:58;;;;;;;28.30;18.50;;;;;;;-1.41;76.99;99980.27;107162;1257;73909;-40
2023/12/06 04:41:26;;;;;;;27.10;17.90;;;;;;;-1.31;76.77;99987.41;107141;1257;67589;-40
2023/12/06 04:43:53;;;;;;;27.60;18.10;;;;;;;-1.27;76.68;99986.77;107122;1257;72759;-40
2023/12/06 04:46:21;;;;;;;31.10;19.40;;;;;;;-1.26;76.43;99989.13;107183;1259;60245;-41
2023/12/06 04:48:48;;;;;;;31.80;20.40;;;;;;;-1.27;76.35;99987.56;107180;1257;60362;-40
2023/12/06 04:51:16;;;;;;;31.90;20.20;;;;;;;-1.26;76.05;99989.07;107180;1256;73856;-40
2023/12/06 04:53:43;;;;;;;29.20;18.50;;;;;;;-1.29;76.03;99989.80;107140;1257;68363;-41
2023/12/06 04:56:11;;;;;;;27.30;18.20;;;;;;;-1.28;75.44;99993.10;107134;1257;71744;-40
2023/12/06 04:58:39;;;;;;;27.60;17.70;;;;;;;-1.28;75.50;99995.23;107223;1261;60537;-40
2023/12/06 05:01:08;;;;;;;29.40;19.20;;;;;;;-1.27;75.75;99992.25;107151;1257;59582;-40
2023/12/06 05:03:36;;;;;;;31.60;19.20;;;;;;;-1.26;75.76;99994.54;107172;1257;73866;-40
2023/12/06 05:06:04;;;;;;;32.60;20.80;;;;;;;-1.26;75.66;99996.52;107174;1257;66310;-40
2023/12/06 05:08:31;;;;;;;32.70;19.50;;;;;;;-1.30;75.28;99992.73;107135;1257;72692;-40
2023/12/06 05:10:59;;;;;;;31.10;18.60;;;;;;;-1.29;74.90;99988.64;107159;1261;60455;-40
2023/12/06 05:13:26;;;;;;;29.40;19.50;;;;;;;-1.28;74.89;99991.72;107167;1257;60024;-40
2023/12/06 05:15:55;;;;;;;32.20;19.70;;;;;;;-1.33;75.09;99992.99;107147;1257;73938;-40
2023/12/06 05:18:22;;;;;;;34.60;19.70;;;;;;;-1.35;75.14;99989.48;107160;1257;66619;-40
2023/12/06 05:20:50;;;;;;;34.10;20.40;;;;;;;-1.43;75.12;99987.56;107144;1259;72683;-40
2023/12/06 05:23:17;;;;;;;28.20;18.10;;;;;;;-1.44;75.06;99986.39;107153;1259;60872;-40
2023/12/06 05:25:45;;;;;;;29.90;19.80;;;;;;;-1.41;75.10;99988.52;107130;1257;60043;-40
2023/12/06 05:28:12;;;;;;;31.30;20.10;;;;;;;-1.43;75.28;99987.63;107159;1257;73905;-40
2023/12/06 05:30:41;;;;;;;34.00;20.70;;;;;;;-1.46;75.20;99981.60;107161;1257;67564;-40
2023/12/06 05:33:09;;;;;;;35.00;20.50;;;;;;;-1.52;75.49;99984.05;107137;1257;72664;-40
2023/12/06 05:35:37;;;;;;;31.00;19.80;;;;;;;-1.55;75.36;99984.04;107115;1257;60867;-40
2023/12/06 05:38:04;;;;;;;35.00;21.30;;;;;;;-1.49;75.25;99984.36;107136;1257;60342;-40
2023/12/06 05:40:33;;;;;;;34.30;21.40;;;;;;;-1.51;75.34;99978.73;107149;1257;72617;-41
2023/12/06 05:43:00;;;;;;;33.60;21.80;;;;;;;-1.53;75.41;99978.98;106987;1257;67569;-41
2023/12/06 05:45:28;;;;;;;33.20;21.30;;;;;;;-1.55;75.50;99978.67;107144;1258;72683;-40
2023/12/06 05:47:55;;;;;;;30.80;20.20;;;;;;;-1.64;75.53;99961.12;107147;1257;60879;-40
2023/12/06 05:50:23;;;;;;;37.30;20.80;;;;;;;-1.53;75.24;99975.48;107188;1262;59259;-40
2023/12/06 05:52:51;;;;;;;33.90;20.60;;;;;;;-1.51;75.36;99979.11;107174;1257;73918;-40
2023/12/06 05:55:19;;;;;;;35.50;21.80;;;;;;;-1.53;75.31;99974.84;107180;1257;67567;-40
2023/12/06 05:57:46;;;;;;;37.60;24.70;;;;;;;-1.55;75.43;99975.95;107130;1257;72726;-40
2023/12/06 06:00:17;;;;;;;40.50;24.30;;;;;;;-1.59;75.51;99978.23;107148;1262;60551;-40
2023/12/06 06:02:45;;;;;;;39.10;23.30;;;;;;;-1.62;75.26;99986.54;107264;1263;60725;-41
2023/12/06 06:05:13;;;;;;;40.40;23.80;;;;;;;-1.57;75.24;99985.75;107167;1258;73879;-40
2023/12/06 06:07:40;;;;;;;35.00;22.60;;;;;;;-1.55;75.32;99987.34;107157;1257;67671;-40
2023/12/06 06:10:08;;;;;;;34.70;22.50;;;;;;;-1.55;75.55;99990.31;107180;1257;72709;-40
2023/12/06 06:12:36;;;;;;;32.00;22.10;;;;;;;-1.55;75.47;99992.00;107189;1257;60298;-40
2023/12/06 06:15:05;;;;;;;35.90;21.90;;;;;;;-1.55;75.58;99996.38;107141;1257;60585;-40
2023/12/06 06:17:32;;;;;;;30.20;18.20;;;;;;;-1.54;75.36;99993.98;107229;1257;74286;-41
2023/12/06 06:20:00;;;;;;;29.30;20.90;;;;;;;-1.50;75.08;100000.20;107189;1257;67627;-40
2023/12/06 06:22:27;;;;;;;35.30;21.80;;;;;;;-1.53;75.33;99999.14;107203;1256;71438;-40
2023/12/06 06:24:56;;;;;;;35.10;22.60;;;;;;;-1.56;75.32;100002.43;106400;1257;1015555;-40
2023/12/06 06:27:23;;;;;;;31.80;21.40;;;;;;;-1.59;75.39;100009.56;107146;1257;60434;-40
2023/12/06 06:29:51;;;;;;;34.40;22.00;;;;;;;-1.58;75.36;100007.55;107164;1257;73869;-40
2023/12/06 06:32:19;;;;;;;36.80;21.80;;;;;;;-1.49;75.13;100012.45;107158;1262;66301;-41
2023/12/06 06:34:46;;;;;;;33.50;22.90;;;;;;;-1.46;75.07;100010.54;107192;1257;73155;-40
2023/12/06 06:37:14;;;;;;;35.10;23.20;;;;;;;-1.46;75.09;100013.94;107180;1258;60556;-40
2023/12/06 06:39:42;;;;;;;36.40;23.40;;;;;;;-1.47;75.18;100014.69;107138;1257;60465;-40
2023/12/06 06:42:09;;;;;;;32.40;21.80;;;;;;;-1.49;74.95;100016.00;107167;1262;73926;-40
2023/12/06 06:44:37;;;;;;;34.40;21.60;;;;;;;-1.47;74.70;100016.60;107179;1257;68059;-40
2023/12/06 06:47:23;;;;;;;33.90;21.80;;;;;;;-1.42;74.72;100026.13;107189;1257;71431;-41
2023/12/06 06:49:52;;;;;;;34.20;22.20;;;;;;;-1.42;74.54;100028.30;107223;1260;60471;-41
2023/12/06 06:52:20;;;;;;;34.60;22.80;;;;;;;-1.47;74.61;100030.33;107175;1257;60431;-43
2023/12/06 06:54:48;;;;;;;36.50;22.60;;;;;;;-1.50;74.47;100034.63;107158;1257;73845;-44
2023/12/06 06:57:15;;;;;;;32.60;21.90;;;;;;;-1.52;74.63;100035.64;107192;1257;66901;-39
2023/12/06 06:59:43;;;;;;;35.90;21.30;;;;;;;-1.46;74.61;100037.76;107160;1257;70187;-39
2023/12/06 07:02:10;;;;;;;35.00;21.70;;;;;;;-1.39;74.85;100039.16;107134;1261;60369;-40
2023/12/06 07:04:38;;;;;;;35.60;22.30;;;;;;;-1.36;74.89;100037.57;107154;1262;60347;-40
2023/12/06 07:07:06;;;;;;;32.40;21.40;;;;;;;-1.30;74.75;100039.54;107175;1257;73841;-40
2023/12/06 07:09:34;;;;;;;36.60;22.20;;;;;;;-1.27;74.65;100038.54;106423;1257;1003643;-41
2023/12/06 07:12:03;;;;;;;34.20;21.20;;;;;;;-1.27;74.31;100041.09;106407;1260;1003031;-40
2023/12/06 07:14:31;;;;;;;31.90;20.80;;;;;;;-1.19;74.10;100046.84;107155;1257;60548;-40
2023/12/06 07:16:59;;;;;;;29.10;20.00;;;;;;;-1.11;74.15;100048.38;107168;1257;60466;-40
2023/12/06 07:19:26;;;;;;;31.60;21.00;;;;;;;-1.07;74.02;100050.56;107148;1256;73919;-40
2023/12/06 07:21:56;;;;;;;37.30;22.70;;;;;;;-1.05;73.67;100056.90;106979;1258;66443;-40
2023/12/06 07:24:24;;;;;;;32.50;22.30;;;;;;;-1.05;73.50;100059.56;107159;1257;72693;-40
2023/12/06 07:26:53;;;;;;;43.90;19.20;;;;;;;-1.06;73.68;100058.33;106338;1258;1003036;-40
2023/12/06 07:29:22;;;;;;;34.60;23.60;;;;;;;-1.04;73.95;100057.17;107260;1257;60235;-40
2023/12/06 07:31:50;;;;;;;40.10;25.20;;;;;;;-0.95;74.15;100060.05;107132;1263;71670;-40
2023/12/06 07:34:18;;;;;;;39.00;24.90;;;;;;;-0.91;74.42;100057.48;107238;1257;67588;-40
2023/12/06 07:36:50;;;;;;;42.30;27.60;;;;;;;-0.90;74.64;100060.79;107240;1257;72686;-40
2023/12/06 07:39:18;;;;;;;45.40;28.00;;;;;;;-0.91;74.74;100064.03;107140;1257;60412;-40
2023/12/06 07:41:46;;;;;;;43.60;26.10;;;;;;;-0.94;74.76;100059.56;107160;1257;60219;-41
2023/12/06 07:44:15;;;;;;;40.60;25.60;;;;;;;-0.95;74.56;100061.80;107195;1257;73841;-40
2023/12/06 07:46:43;;;;;;;38.50;24.70;;;;;;;-0.93;74.96;100065.70;107131;1257;67892;-41
2023/12/06 07:49:12;;;;;;;42.40;27.50;;;;;;;-0.95;75.23;100065.00;107043;1257;72725;-40
2023/12/06 07:51:41;;;;;;;40.30;23.80;;;;;;;-0.99;75.31;100065.48;107097;1261;60499;-40
2023/12/06 07:54:09;;;;;;;44.10;26.90;;;;;;;-1.05;75.59;100062.59;107087;1257;60389;-41
2023/12/06 07:56:36;;;;;;;45.60;25.80;;;;;;;-1.06;75.77;100061.21;107087;1258;73798;-39
2023/12/06 07:59:04;;;;;;;46.80;26.90;;;;;;;-1.02;75.66;100060.15;107061;1257;66779;-40
2023/12/06 08:01:32;;;;;;;44.70;27.90;;;;;;;-1.00;75.93;100064.83;107041;1262;71899;-40
2023/12/06 08:04:03;;;;;;;45.80;29.30;;;;;;;-0.99;76.10;100068.23;107050;1262;60543;-40
2023/12/06 08:06:31;;;;;;;41.60;25.50;;;;;;;-1.00;76.01;100065.79;107087;1257;60329;-40
2023/12/06 08:09:00;;;;;;;43.80;26.50;;;;;;;-0.95;76.07;100069.48;107047;1257;73882;-40
2023/12/06 08:11:28;;;;;;;41.90;25.80;;;;;;;-0.87;76.08;100073.61;107087;1257;67574;-40
2023/12/06 08:13:55;;;;;;;42.30;26.50;;;;;;;-0.82;76.33;100076.07;107051;1257;72664;-40
2023/12/06 08:16:23;;;;;;;41.80;25.40;;;;;;;-0.79;76.15;100080.80;107088;1260;60411;-40
2023/12/06 08:18:50;;;;;;;41.40;26.30;;;;;;;-0.79;75.64;100079.16;107077;1257;60425;-40
2023/12/06 08:21:18;;;;;;;39.40;25.00;;;;;;;-0.80;75.33;100081.88;107055;1257;73881;-40
2023/12/06 08:23:47;;;;;;;42.70;24.70;;;;;;;-0.74;75.30;100080.11;107097;1257;66540;-40
2023/12/06 08:26:14;;;;;;;39.90;24.80;;;;;;;-0.70;75.47;100080.17;107127;1262;72733;-39
2023/12/06 08:28:42;;;;;;;40.30;25.50;;;;;;;-0.71;75.04;100080.21;107066;1260;60479;-40
2023/12/06 08:31:10;;;;;;;36.30;23.20;;;;;;;-0.76;75.11;100072.77;107092;1257;60193;-39
2023/12/06 08:33:38;;;;;;;41.50;23.50;;;;;;;-0.69;74.71;100080.48;107050;1258;73805;-39
2023/12/06 08:36:07;;;;;;;32.40;21.80;;;;;;;-0.71;73.87;100080.91;107085;1257;67141;-40
2023/12/06 08:38:34;;;;;;;33.50;21.30;;;;;;;-0.69;73.58;100080.32;104841;1260;1003317;-40
2023/12/06 08:41:04;;;;;;;35.30;23.10;;;;;;;-0.70;73.64;100073.25;107080;1262;61101;-39
2023/12/06 08:43:35;;;;;;;37.60;24.70;;;;;;;-0.67;73.85;100073.55;107077;1257;60418;-40
2023/12/06 08:46:03;;;;;;;36.50;22.40;;;;;;;-0.68;73.36;100071.91;107064;1257;72584;-40
2023/12/06 08:48:30;;;;;;;36.20;23.10;;;;;;;-0.71;73.14;100072.65;107088;1257;66860;-40
2023/12/06 08:50:58;;;;;;;33.90;21.20;;;;;;;-0.71;73.24;100075.38;107059;1257;72687;-40
2023/12/06 08:53:26;;;;;;;30.20;20.20;;;;;;;-0.62;73.06;100078.55;107112;1257;60877;-40
2023/12/06 08:55:54;;;;;;;29.70;20.90;;;;;;;-0.57;72.82;100075.67;107074;1257;60495;-40
2023/12/06 08:58:22;;;;;;;36.40;21.30;;;;;;;-0.57;72.43;100069.33;107124;1262;73811;-40
2023/12/06 09:00:50;;;;;;;36.30;22.10;;;;;;;-0.58;72.03;100066.31;107099;1257;68174;-40
2023/12/06 09:03:18;;;;;;;35.50;22.30;;;;;;;-0.61;71.54;100063.32;107111;1258;72695;-40
2023/12/06 09:05:45;;;;;;;38.80;23.60;;;;;;;-0.66;71.35;100056.36;107070;1260;60539;-40
2023/12/06 09:08:14;;;;;;;33.70;20.40;;;;;;;-0.70;71.40;100054.66;107110;1257;60002;-40
2023/12/06 09:10:41;;;;;;;32.10;21.40;;;;;;;-0.65;71.39;100057.52;107087;1257;72899;-40
2023/12/06 09:13:09;;;;;;;33.90;21.70;;;;;;;-0.64;71.33;100054.81;107100;1257;66436;-40
2023/12/06 09:15:36;;;;;;;34.80;21.50;;;;;;;-0.64;71.58;100049.16;107053;1263;72651;-41
2023/12/06 09:18:05;;;;;;;37.10;23.60;;;;;;;-0.64;71.45;100049.86;107093;1257;60342;-40
2023/12/06 09:20:33;;;;;;;38.70;23.60;;;;;;;-0.66;71.50;100047.67;107085;1262;60491;-40
2023/12/06 09:23:00;;;;;;;34.70;20.80;;;;;;;-0.66;71.87;100044.68;107057;1257;73897;-40
2023/12/06 09:25:28;;;;;;;32.30;21.90;;;;;;;-0.55;72.08;100051.13;107099;1257;68002;-39
2023/12/06 09:27:56;;;;;;;35.90;22.10;;;;;;;-0.45;71.83;100052.42;107069;1258;72712;-40
2023/12/06 09:30:24;;;;;;;34.50;22.30;;;;;;;-0.40;72.04;100052.11;107077;1262;60406;-39
2023/12/06 09:32:52;;;;;;;36.50;23.90;;;;;;;-0.36;71.58;100047.45;107093;1257;60326;-41
2023/12/06 09:35:20;;;;;;;36.90;22.70;;;;;;;-0.33;71.11;100045.20;107142;1257;76098;-41
2023/12/06 09:37:48;;;;;;;37.20;24.40;;;;;;;-0.38;70.42;100047.67;107130;1258;68018;-41
2023/12/06 09:40:15;;;;;;;35.80;22.30;;;;;;;-0.46;70.11;100043.95;107116;1261;72532;-41
2023/12/06 09:42:44;;;;;;;33.00;22.10;;;;;;;-0.41;70.28;100043.05;107051;1257;60399;-41
2023/12/06 09:45:13;;;;;;;34.20;22.20;;;;;;;-0.35;70.71;100042.28;107111;1260;60633;-41
2023/12/06 09:47:42;;;;;;;38.80;23.10;;;;;;;-0.29;70.68;100042.85;107081;1258;76103;-41
2023/12/06 09:50:10;;;;;;;32.60;22.50;;;;;;;-0.25;70.64;100038.91;107102;1257;67061;-41
2023/12/06 09:52:39;;;;;;;38.50;23.10;;;;;;;-0.24;69.97;100040.55;107095;1259;70639;-40
2023/12/06 09:55:07;;;;;;;39.40;25.50;;;;;;;-0.22;69.75;100041.34;107103;1257;60430;-40
2023/12/06 09:57:34;;;;;;;36.80;24.20;;;;;;;-0.23;69.63;100048.06;107102;1262;60449;-41
2023/12/06 10:00:02;;;;;;;35.40;22.30;;;;;;;-0.25;69.37;100046.58;107080;1262;72660;-41
2023/12/06 10:02:54;;;;;;;36.70;22.60;;;;;;;-0.19;69.24;100047.51;107122;1257;67174;-41
2023/12/06 10:05:22;;;;;;;36.60;22.90;;;;;;;-0.18;69.12;100046.38;107092;1257;74687;-41
2023/12/06 10:07:50;;;;;;;38.00;24.90;;;;;;;-0.16;69.57;100046.38;107093;1261;60437;-41
2023/12/06 10:10:22;;;;;;;37.10;23.80;;;;;;;-0.11;69.46;100041.42;107062;1263;60230;-41
2023/12/06 10:12:54;;;;;;;44.10;26.90;;;;;;;-0.08;69.34;100042.41;107155;1257;74213;-41
2023/12/06 10:15:22;;;;;;;42.90;26.50;;;;;;;-0.06;69.57;100042.56;107093;1262;66531;-40
2023/12/06 10:17:50;;;;;;;34.40;22.90;;;;;;;-0.03;69.11;100039.20;107053;1261;72634;-41
2023/12/06 10:20:21;;;;;;;33.60;22.10;;;;;;;0.04;68.66;100043.48;107059;1260;61345;-41
2023/12/06 10:22:48;;;;;;;32.80;21.00;;;;;;;0.04;68.45;100039.23;107130;1257;60332;-40
2023/12/06 10:25:16;;;;;;;38.40;23.70;;;;;;;0.03;68.02;100037.41;106891;1257;74221;-39
2023/12/06 10:27:45;;;;;;;37.20;23.00;;;;;;;0.02;68.23;100042.64;107075;1263;67084;-39
2023/12/06 10:30:20;;;;;;;39.90;25.00;;;;;;;0.02;68.63;100040.39;107061;1257;72651;-39
2023/12/06 10:32:48;;;;;;;33.70;22.30;;;;;;;0.05;68.81;100036.44;107171;1257;60796;-39
2023/12/06 10:35:16;;;;;;;31.60;21.30;;;;;;;0.07;68.36;100038.14;106965;1265;60457;-39
2023/12/06 10:37:43;;;;;;;34.20;22.30;;;;;;;0.15;68.25;100038.31;107086;1258;73895;-39
2023/12/06 10:40:11;;;;;;;34.70;22.30;;;;;;;0.18;68.04;100040.70;107065;1262;67932;-41
2023/12/06 10:42:41;;;;;;;35.00;21.90;;;;;;;0.18;68.25;100033.13;107034;1257;73127;-39
2023/12/06 10:45:09;;;;;;;33.60;21.70;;;;;;;0.21;67.77;100035.14;107068;1262;59753;-39
2023/12/06 10:47:37;;;;;;;36.10;22.50;;;;;;;0.21;68.20;100031.62;106943;1262;275793;-38
2023/12/06 10:51:35;;;;;;;35.50;22.20;;;;;;;0.23;67.99;100031.93;104050;1291;600778;-39
2023/12/06 10:54:02;;;;;;;35.20;21.60;;;;;;;0.19;67.83;100030.73;106678;1262;60987;-38
2023/12/06 10:56:30;;;;;;;37.10;22.00;;;;;;;0.27;67.72;100031.74;106601;1262;59228;-38
2023/12/06 10:58:58;;;;;;;33.30;21.40;;;;;;;0.31;67.79;100027.13;106589;1262;71139;-38
2023/12/06 11:01:25;;;;;;;35.90;22.10;;;;;;;0.33;67.65;100024.52;106647;1262;67946;-38
2023/12/06 11:03:53;;;;;;;38.00;21.40;;;;;;;0.34;66.95;100018.16;106791;1263;71456;-38
2023/12/06 11:06:38;;;;;;;38.40;22.00;;;;;;;0.32;66.84;100013.85;106718;1260;129274;-38
2023/12/06 11:09:29;;;;;;;39.00;23.80;;;;;;;0.33;66.97;100015.65;106859;1262;59285;-38